Time;durP1;ratioP1;P1;durP2;ratioP2;P2;SDS_P1;SDS_P2;PMS_P1;PMS_P2;Temp;Humidity;BMP_temperature;BMP_pressure;BME280_temperature;BME280_humidity;BME280_pressure;Samples;Min_cycle;Max_cycle;Signal;HPM_P1;HPM_P2
2022/03/20 00:00:56;;;;;;;0.30;0.20;;;;;;;0.96;45.58;97337.78;5133232;27;20994;-54
2022/03/20 00:03:26;;;;;;;0.30;0.30;;;;;;;0.37;45.40;97335.31;5133526;27;20591;-54
2022/03/20 00:05:56;;;;;;;0.30;0.20;;;;;;;0.65;45.28;97334.13;5133213;27;20849;-54
2022/03/20 00:08:25;;;;;;;0.40;0.37;;;;;;;0.44;45.28;97299.78;5133198;27;20844;-54
2022/03/20 00:10:56;;;;;;;0.30;0.27;;;;;;;0.55;45.57;97328.22;5132939;27;20445;-55
2022/03/20 00:13:25;;;;;;;0.30;0.20;;;;;;;1.11;44.95;97330.94;5133212;27;20492;-54
2022/03/20 00:15:55;;;;;;;0.30;0.20;;;;;;;1.32;44.23;97335.72;5133256;27;20487;-55
2022/03/20 00:18:26;;;;;;;0.30;0.20;;;;;;;1.77;42.64;97332.63;5133289;27;20452;-55
2022/03/20 00:20:58;;;;;;;0.20;0.20;;;;;;;1.40;43.11;97338.31;5133042;27;20806;-54
2022/03/20 00:23:27;;;;;;;0.20;0.20;;;;;;;-0.05;44.25;97137.97;5133181;27;20455;-54
2022/03/20 00:25:57;;;;;;;0.20;0.20;;;;;;;0.93;44.40;97335.50;5133231;27;20943;-54
2022/03/20 00:28:27;;;;;;;0.30;0.20;;;;;;;1.16;44.36;97340.94;5132411;27;20856;-55
2022/03/20 00:30:57;;;;;;;0.23;0.20;;;;;;;1.52;43.47;97333.63;5132981;27;20429;-54
2022/03/20 00:33:26;;;;;;;0.53;0.53;;;;;;;0.91;44.45;97350.50;5133044;27;20438;-54
2022/03/20 00:35:56;;;;;;;0.20;0.20;;;;;;;1.02;43.98;97341.53;5133155;27;20462;-55
2022/03/20 00:38:25;;;;;;;0.20;0.20;;;;;;;0.67;44.48;97332.16;5133029;27;20525;-54
2022/03/20 00:40:53;;;;;;;0.20;0.20;;;;;;;0.49;44.24;97334.03;5133030;27;20455;-55
2022/03/20 00:43:22;;;;;;;0.30;0.30;;;;;;;0.51;44.40;97343.34;5132859;27;20461;-55
2022/03/20 00:45:51;;;;;;;0.20;0.20;;;;;;;0.58;45.14;97340.94;5132755;27;20446;-55
2022/03/20 00:48:23;;;;;;;0.20;0.20;;;;;;;0.79;44.99;97335.28;5132767;27;20476;-55
2022/03/20 00:50:52;;;;;;;0.20;0.20;;;;;;;0.51;43.93;97338.13;5132420;28;20479;-55
2022/03/20 00:53:22;;;;;;;0.20;0.20;;;;;;;0.22;44.18;97337.69;5132558;28;20454;-55
2022/03/20 00:55:50;;;;;;;0.30;0.20;;;;;;;0.36;44.55;97329.28;5132435;28;20509;-55
2022/03/20 00:58:19;;;;;;;0.97;0.97;;;;;;;0.46;44.04;97296.03;5132357;28;20479;-55
2022/03/20 01:00:47;;;;;;;39.60;0.87;;;;;;;0.46;44.53;97337.78;5132277;28;20514;-55
2022/03/20 01:03:16;;;;;;;0.20;0.20;;;;;;;0.56;44.01;97327.22;5132312;28;20518;-55
2022/03/20 01:05:44;;;;;;;0.30;0.20;;;;;;;0.64;43.93;97338.50;5132225;28;20422;-55
2022/03/20 01:08:13;;;;;;;0.30;0.20;;;;;;;0.54;44.81;97337.00;5132090;28;20505;-55
2022/03/20 01:10:43;;;;;;;0.30;0.20;;;;;;;0.73;44.21;97339.38;5132759;27;20511;-55
2022/03/20 01:13:11;;;;;;;0.20;0.20;;;;;;;0.26;44.65;97340.78;5132912;28;20481;-55
2022/03/20 01:15:40;;;;;;;0.20;0.20;;;;;;;0.23;45.38;97347.13;5132843;28;20446;-55
2022/03/20 01:18:08;;;;;;;0.73;0.73;;;;;;;0.28;45.47;97346.69;5132325;28;20860;-55
2022/03/20 01:20:37;;;;;;;0.20;0.20;;;;;;;-0.02;45.58;97337.53;5132341;28;20471;-55
2022/03/20 01:23:05;;;;;;;0.30;0.20;;;;;;;-0.01;45.87;97339.19;5134386;27;20421;-55
2022/03/20 01:25:34;;;;;;;0.43;0.43;;;;;;;0.07;46.03;97339.25;5136379;27;20431;-55
2022/03/20 01:28:04;;;;;;;0.20;0.20;;;;;;;-0.20;45.65;97334.97;5136711;27;20430;-55
2022/03/20 01:30:32;;;;;;;0.20;0.20;;;;;;;0.05;49.39;97345.59;5136239;27;20977;-55
2022/03/20 01:33:01;;;;;;;0.20;0.20;;;;;;;0.14;46.03;97334.22;5136458;27;20430;-55
2022/03/20 01:35:30;;;;;;;0.73;0.73;;;;;;;0.18;45.66;97325.13;5136180;27;20968;-55
2022/03/20 01:37:59;;;;;;;0.30;0.20;;;;;;;0.06;45.82;97300.28;5136057;27;20505;-55
2022/03/20 01:40:27;;;;;;;0.20;0.20;;;;;;;0.27;44.82;97296.31;5136243;27;20505;-55
2022/03/20 01:42:56;;;;;;;0.20;0.20;;;;;;;0.07;45.61;97322.78;5135512;27;20496;-55
2022/03/20 01:45:26;;;;;;;0.63;0.63;;;;;;;-0.01;45.94;97321.75;5136253;27;20458;-55
2022/03/20 01:47:55;;;;;;;0.30;0.20;;;;;;;-0.08;46.91;97283.44;5136127;27;20458;-55
2022/03/20 01:50:25;;;;;;;0.30;0.20;;;;;;;-0.03;45.40;97320.28;5135824;27;21053;-55
2022/03/20 01:52:54;;;;;;;0.20;0.20;;;;;;;-0.31;46.22;97319.63;5135767;27;20961;-55
2022/03/20 01:55:24;;;;;;;0.20;0.20;;;;;;;-0.16;45.64;97315.47;5136140;27;20805;-55
2022/03/20 01:57:54;;;;;;;0.53;0.53;;;;;;;-0.29;46.20;97315.06;5135605;27;20426;-55
2022/03/20 02:00:26;;;;;;;0.20;0.20;;;;;;;-0.39;46.10;97285.69;5135981;27;20475;-54
2022/03/20 02:02:55;;;;;;;1.33;0.60;;;;;;;0.02;45.56;97298.97;5135878;27;20438;-54
2022/03/20 02:05:24;;;;;;;0.20;0.20;;;;;;;0.21;45.33;97309.97;5135603;27;20430;-54
2022/03/20 02:07:54;;;;;;;0.30;0.20;;;;;;;0.35;45.28;97313.78;5135334;27;20504;-55
2022/03/20 02:10:35;;;;;;;0.20;0.20;;;;;;;0.25;44.73;97315.69;5135271;27;20473;-54
2022/03/20 02:13:04;;;;;;;0.30;0.20;;;;;;;0.53;44.61;97306.69;5135645;27;20434;-54
2022/03/20 02:15:36;;;;;;;0.20;0.20;;;;;;;0.50;44.32;97300.00;5135655;27;20446;-54
2022/03/20 02:18:07;;;;;;;2.23;0.90;;;;;;;0.61;44.26;97306.69;5135557;27;20828;-54
2022/03/20 02:20:35;;;;;;;0.20;0.20;;;;;;;0.57;45.11;97310.59;5135330;27;20495;-54
2022/03/20 02:23:06;;;;;;;0.60;0.60;;;;;;;0.38;44.45;97303.84;5135106;27;20521;-54
2022/03/20 02:25:34;;;;;;;0.20;0.20;;;;;;;-0.18;44.98;97312.19;5135449;27;20472;-54
2022/03/20 02:28:02;;;;;;;0.40;0.30;;;;;;;0.20;45.39;97284.06;5135428;27;20427;-54
2022/03/20 02:30:31;;;;;;;0.20;0.20;;;;;;;0.18;45.54;97297.22;5135311;27;20541;-54
2022/03/20 02:33:00;;;;;;;0.20;0.20;;;;;;;0.14;45.71;97298.53;5135357;27;20502;-54
2022/03/20 02:35:30;;;;;;;0.47;0.47;;;;;;;0.06;46.41;97301.09;5133764;27;20943;-54
2022/03/20 02:37:59;;;;;;;0.20;0.20;;;;;;;0.13;45.67;97306.53;5134878;27;20422;-54
2022/03/20 02:40:29;;;;;;;0.20;0.20;;;;;;;-0.21;46.00;97301.28;5134834;27;20938;-53
2022/03/20 02:42:58;;;;;;;0.30;0.20;;;;;;;-0.62;47.05;97292.38;5134858;27;20930;-54
2022/03/20 02:45:29;;;;;;;0.30;0.23;;;;;;;-1.22;47.08;97189.91;5135114;27;20431;-54
2022/03/20 02:48:00;;;;;;;0.30;0.20;;;;;;;-0.56;47.26;97294.38;5135006;27;20849;-54
2022/03/20 02:50:32;;;;;;;0.20;0.20;;;;;;;-0.24;46.98;97297.19;5134882;27;20481;-54
2022/03/20 02:53:03;;;;;;;0.20;0.20;;;;;;;-0.66;47.24;97286.63;5134999;27;20427;-54
2022/03/20 02:55:34;;;;;;;0.53;0.53;;;;;;;-0.17;46.02;97294.78;5134472;27;20522;-54
2022/03/20 02:58:05;;;;;;;0.20;0.20;;;;;;;-0.45;46.35;97296.72;5134627;27;20422;-55
2022/03/20 03:00:35;;;;;;;0.20;0.20;;;;;;;-0.82;46.34;97205.81;5134535;27;20466;-54
2022/03/20 03:03:06;;;;;;;0.20;0.20;;;;;;;-0.27;46.31;97297.50;5134421;27;20427;-54
2022/03/20 03:05:36;;;;;;;0.50;0.50;;;;;;;-0.28;46.52;97298.44;5134351;27;20426;-54
2022/03/20 03:10:59;;;;;;;0.40;0.30;;;;;;;-0.51;46.84;97296.50;5134103;27;20470;-55
2022/03/20 03:13:30;;;;;;;0.20;0.20;;;;;;;-0.44;46.61;97303.56;5134108;27;20425;-54
2022/03/20 03:16:00;;;;;;;0.20;0.20;;;;;;;-0.14;46.77;97316.13;5134839;27;20495;-54
2022/03/20 03:18:28;;;;;;;0.50;0.50;;;;;;;-0.67;46.64;97305.84;5134338;27;20469;-54
2022/03/20 03:20:59;;;;;;;0.30;0.20;;;;;;;-0.99;48.10;97309.97;5134148;27;20505;-54
2022/03/20 03:23:27;;;;;;;0.40;0.40;;;;;;;-0.97;47.38;97248.16;5134399;27;20459;-54
2022/03/20 03:25:58;;;;;;;0.20;0.20;;;;;;;-0.47;46.41;97296.06;5133847;27;20435;-54
2022/03/20 03:28:34;;;;;;;0.30;0.20;;;;;;;-0.40;46.34;97309.28;5134013;27;20451;-54
2022/03/20 03:31:05;;;;;;;0.30;0.27;;;;;;;-0.47;45.98;97303.03;5133977;27;20501;-55
2022/03/20 03:33:34;;;;;;;0.20;0.20;;;;;;;-0.04;45.23;97296.00;5133871;27;20954;-54
2022/03/20 03:36:01;;;;;;;0.20;0.20;;;;;;;-0.01;44.68;97300.09;5133795;27;20415;-54
2022/03/20 03:38:34;;;;;;;0.20;0.20;;;;;;;-0.24;45.75;97307.59;5133795;27;20423;-55
2022/03/20 03:41:04;;;;;;;0.20;0.20;;;;;;;-0.41;46.09;97311.09;5133612;27;20474;-54
2022/03/20 03:43:33;;;;;;;0.20;0.20;;;;;;;0.17;45.59;97302.63;5133952;27;20518;-54
2022/03/20 03:46:01;;;;;;;0.20;0.20;;;;;;;-0.48;45.79;97309.25;5133450;27;20869;-54
2022/03/20 03:48:30;;;;;;;0.30;0.20;;;;;;;-0.32;46.29;97317.16;5133675;27;20943;-54
2022/03/20 03:53:50;;;;;;;1.80;1.53;;;;;;;-1.09;48.21;97317.84;5133875;27;20860;-54
2022/03/20 03:56:20;;;;;;;0.70;0.70;;;;;;;-0.86;47.33;97319.00;5133459;27;20434;-54
2022/03/20 03:58:48;;;;;;;0.20;0.20;;;;;;;-0.91;47.58;97315.25;5133732;27;20509;-54
2022/03/20 04:01:16;;;;;;;0.20;0.20;;;;;;;-0.63;46.46;97312.38;5133689;27;20530;-54
2022/03/20 04:03:45;;;;;;;0.20;0.20;;;;;;;-0.59;46.48;97319.88;5133755;27;20847;-54
2022/03/20 04:06:13;;;;;;;0.20;0.20;;;;;;;-0.82;46.31;97319.53;5133597;27;20491;-55
2022/03/20 04:08:42;;;;;;;0.20;0.20;;;;;;;-0.96;47.45;97322.69;5133077;27;21032;-54
2022/03/20 04:11:10;;;;;;;0.30;0.20;;;;;;;-1.33;47.19;97309.78;5133480;27;20915;-54
2022/03/20 04:13:41;;;;;;;0.40;0.40;;;;;;;-1.46;47.96;97315.31;5133217;27;20514;-54
2022/03/20 04:16:09;;;;;;;0.20;0.20;;;;;;;-1.21;48.07;97318.22;5133092;27;20450;-54
2022/03/20 04:18:39;;;;;;;0.20;0.20;;;;;;;-1.32;48.20;97320.03;5132825;27;20786;-54
2022/03/20 04:21:07;;;;;;;0.20;0.20;;;;;;;-1.50;48.62;97326.16;5132604;27;20469;-54
2022/03/20 04:23:46;;;;;;;0.20;0.20;;;;;;;-1.22;48.42;97324.38;5132911;27;20513;-54
2022/03/20 04:26:17;;;;;;;0.20;0.13;;;;;;;-1.96;48.37;97234.34;5133203;27;20430;-54
2022/03/20 04:28:48;;;;;;;0.20;0.20;;;;;;;-1.15;47.89;97341.00;5133166;27;20445;-54
2022/03/20 04:31:19;;;;;;;0.20;0.20;;;;;;;-0.98;47.52;97308.97;5133075;27;20482;-54
2022/03/20 04:33:50;;;;;;;0.30;0.30;;;;;;;-0.59;46.22;97327.69;5133030;27;20434;-54
2022/03/20 04:36:21;;;;;;;0.20;0.20;;;;;;;-1.10;46.92;97328.38;5133091;27;20861;-54
2022/03/20 04:38:50;;;;;;;0.30;0.20;;;;;;;-1.39;47.59;97331.97;5133022;27;20763;-54
2022/03/20 04:41:19;;;;;;;0.30;0.30;;;;;;;-1.55;48.12;97331.00;5132743;27;20458;-54
2022/03/20 04:43:50;;;;;;;6.80;2.53;;;;;;;-0.98;47.02;97329.78;5132628;27;20456;-54
2022/03/20 04:46:20;;;;;;;0.20;0.20;;;;;;;-0.79;46.95;97327.06;5132878;27;20434;-54
2022/03/20 04:59:54;;;;;;;0.20;0.20;;;;;;;-0.63;47.96;97316.75;5136915;27;20473;-54
2022/03/20 05:02:23;;;;;;;0.40;0.40;;;;;;;-0.95;49.92;97306.06;5136788;27;20504;-54
2022/03/20 05:04:52;;;;;;;0.20;0.10;;;;;;;-1.04;48.61;97301.78;5136723;27;20513;-54
2022/03/20 05:07:21;;;;;;;0.20;0.20;;;;;;;-0.30;50.38;97323.84;5136516;27;20422;-53
2022/03/20 05:15:19;;;;;;;0.30;0.30;;;;;;;0.15;50.34;97321.03;5119230;27;20462;-53
2022/03/20 05:17:47;;;;;;;0.20;0.20;;;;;;;-0.17;47.57;97326.88;5136289;27;20455;-53
2022/03/20 05:20:16;;;;;;;0.20;0.20;;;;;;;-1.08;46.93;97324.66;5136453;27;20521;-53
2022/03/20 05:22:44;;;;;;;0.20;0.20;;;;;;;-0.50;72.61;97308.56;5136189;27;20462;-53
2022/03/20 05:25:13;;;;;;;0.20;0.20;;;;;;;-1.00;48.05;97323.91;5135959;27;20517;-53
2022/03/20 05:27:42;;;;;;;0.30;0.23;;;;;;;-1.05;47.61;97316.56;5136281;27;20538;-54
2022/03/20 05:30:11;;;;;;;0.20;0.20;;;;;;;-1.74;47.88;97227.91;5136204;27;20475;-53
2022/03/20 05:32:41;;;;;;;0.20;0.20;;;;;;;-0.82;47.28;97329.94;5136411;27;20565;-54
2022/03/20 05:35:11;;;;;;;0.30;0.20;;;;;;;-0.96;47.00;97323.47;5135689;27;20461;-53
2022/03/20 05:37:40;;;;;;;0.30;0.20;;;;;;;-0.67;47.59;97316.25;5136386;27;20491;-53
2022/03/20 05:40:09;;;;;;;0.20;0.20;;;;;;;0.00;51.82;97320.78;5136073;27;20438;-54
2022/03/20 05:42:38;;;;;;;0.20;0.20;;;;;;;0.34;44.86;97314.75;5135971;27;20470;-53
2022/03/20 05:45:10;;;;;;;0.27;0.23;;;;;;;0.03;44.05;97308.44;5136275;27;20430;-53
2022/03/20 05:47:39;;;;;;;0.20;0.20;;;;;;;0.22;43.70;97324.66;5135832;27;20760;-52
2022/03/20 05:50:11;;;;;;;0.20;0.20;;;;;;;0.62;43.01;97322.19;5136173;27;20450;-53
2022/03/20 05:52:39;;;;;;;0.30;0.30;;;;;;;0.29;44.55;97298.75;5135775;27;21038;-52
2022/03/20 05:55:09;;;;;;;0.20;0.10;;;;;;;0.50;43.00;97322.66;5135699;27;20464;-53
2022/03/20 06:00:24;;;;;;;0.20;0.20;;;;;;;0.21;42.43;97215.28;5135711;27;20462;-52
2022/03/20 06:02:53;;;;;;;0.20;0.20;;;;;;;1.63;40.92;97317.59;5135564;27;20430;-53
2022/03/20 06:05:23;;;;;;;0.20;0.20;;;;;;;1.94;39.07;97318.53;5135800;27;20427;-53
2022/03/20 06:07:52;;;;;;;0.30;0.30;;;;;;;2.67;38.90;97299.97;5135266;27;20526;-53
2022/03/20 06:10:21;;;;;;;0.30;0.20;;;;;;;3.14;36.92;97305.88;5135186;27;20977;-53
2022/03/20 06:12:49;;;;;;;0.30;0.20;;;;;;;3.05;37.50;97297.28;5135269;27;20501;-58
2022/03/20 06:15:18;;;;;;;0.20;0.20;;;;;;;3.37;36.98;97306.72;5134893;27;20458;-53
2022/03/20 06:17:47;;;;;;;0.40;0.30;;;;;;;4.14;35.35;97302.91;5135281;27;20491;-53
2022/03/20 06:20:17;;;;;;;0.30;0.20;;;;;;;4.49;35.03;97296.91;5135300;27;20471;-53
2022/03/20 06:22:49;;;;;;;0.30;0.20;;;;;;;4.17;35.10;97296.47;5135156;27;20441;-54
2022/03/20 06:25:18;;;;;;;17.17;0.77;;;;;;;5.10;35.97;97287.72;5135305;27;20926;-54
2022/03/20 06:27:48;;;;;;;1.80;0.37;;;;;;;4.49;34.58;97290.84;5135576;27;20471;-54
2022/03/20 06:30:18;;;;;;;0.30;0.20;;;;;;;4.57;34.05;97293.38;5135320;27;20895;-54
2022/03/20 06:32:48;;;;;;;0.50;0.43;;;;;;;5.04;33.48;97293.72;5135241;27;20466;-54
2022/03/20 06:35:18;;;;;;;0.40;0.30;;;;;;;5.58;31.89;97288.78;5135064;27;20499;-54
2022/03/20 06:37:52;;;;;;;0.40;0.30;;;;;;;5.86;32.26;97282.75;5135057;27;20469;-54
2022/03/20 06:40:24;;;;;;;0.40;0.30;;;;;;;6.54;31.27;97285.38;5134995;27;20487;-53
2022/03/20 06:42:53;;;;;;;0.30;0.20;;;;;;;5.86;33.80;97280.94;5135319;27;20497;-53
2022/03/20 06:45:21;;;;;;;0.40;0.33;;;;;;;6.69;33.08;97283.41;5134655;27;20431;-52
2022/03/20 06:47:50;;;;;;;33.57;1.53;;;;;;;6.80;30.73;97272.31;5134950;27;20514;-52
2022/03/20 06:50:19;;;;;;;0.33;0.23;;;;;;;6.68;30.60;97271.25;5134078;27;20484;-52
2022/03/20 06:52:49;;;;;;;0.30;0.20;;;;;;;7.11;27.88;97269.13;5134620;27;20466;-52
2022/03/20 06:55:18;;;;;;;0.30;0.20;;;;;;;7.85;34.56;97269.81;5134885;27;20461;-52
2022/03/20 06:57:48;;;;;;;0.30;0.30;;;;;;;8.07;27.67;97265.94;5135060;27;20458;-51
2022/03/20 07:00:17;;;;;;;0.30;0.20;;;;;;;7.98;26.54;97264.53;5134352;27;20431;-51
2022/03/20 07:02:47;;;;;;;0.50;0.40;;;;;;;7.59;27.51;97275.09;5134774;27;20887;-51
2022/03/20 07:05:16;;;;;;;0.30;0.20;;;;;;;6.90;28.17;97270.13;5134324;27;20435;-51
2022/03/20 07:07:44;;;;;;;0.40;0.37;;;;;;;8.49;26.82;97259.38;5133763;27;20889;-51
2022/03/20 07:10:15;;;;;;;0.30;0.20;;;;;;;7.47;30.27;97264.34;5134236;27;20423;-51
2022/03/20 07:12:44;;;;;;;0.40;0.40;;;;;;;7.71;27.71;97257.66;5133982;27;20474;-51
2022/03/20 07:15:12;;;;;;;4.57;0.53;;;;;;;6.95;27.67;97256.34;5134222;27;20465;-51
2022/03/20 07:17:40;;;;;;;0.40;0.30;;;;;;;7.61;27.02;97255.41;5134123;27;20419;-51
2022/03/20 07:20:10;;;;;;;0.30;0.20;;;;;;;9.39;29.71;97213.28;5133063;27;20480;-51
2022/03/20 07:22:39;;;;;;;0.30;0.27;;;;;;;8.19;26.04;97245.81;5134033;27;20863;-51
2022/03/20 07:30:48;;;;;;;0.50;0.40;;;;;;;9.28;33.00;97240.47;5133898;27;20873;-49
2022/03/20 07:33:16;;;;;;;0.30;0.20;;;;;;;10.20;27.33;97221.94;5132780;27;20481;-51
2022/03/20 07:35:45;;;;;;;0.83;0.73;;;;;;;8.75;25.48;97238.09;5133795;27;20451;-51
2022/03/20 07:38:13;;;;;;;0.53;0.53;;;;;;;8.70;25.96;97229.97;5133444;27;20509;-51
2022/03/20 07:40:42;;;;;;;7.00;0.60;;;;;;;8.99;25.20;97228.63;5134038;27;20841;-52
2022/03/20 07:43:11;;;;;;;0.40;0.30;;;;;;;8.48;24.42;97225.19;5133586;27;20554;-53
2022/03/20 07:45:40;;;;;;;0.80;0.80;;;;;;;9.41;24.93;97220.00;5133415;27;20427;-53
2022/03/20 07:48:08;;;;;;;0.30;0.30;;;;;;;9.53;29.10;97222.75;5131947;27;20969;-52
2022/03/20 07:50:37;;;;;;;0.60;0.60;;;;;;;9.96;25.76;97228.09;5132722;27;20427;-52
2022/03/20 07:53:05;;;;;;;0.40;0.30;;;;;;;9.57;24.62;97224.75;5132952;27;20541;-53
2022/03/20 07:55:34;;;;;;;0.40;0.30;;;;;;;9.79;23.29;97206.63;5131309;27;20415;-53
2022/03/20 07:58:03;;;;;;;0.70;0.30;;;;;;;9.21;24.24;97216.69;5130779;27;20571;-54
2022/03/20 08:00:32;;;;;;;0.43;0.43;;;;;;;10.35;24.52;97195.09;5130811;27;20415;-54
2022/03/20 08:03:01;;;;;;;2.23;0.87;;;;;;;10.03;22.93;97197.84;5130924;27;20473;-55
2022/03/20 08:05:29;;;;;;;0.63;0.63;;;;;;;9.99;23.80;97196.66;5131122;27;20422;-55
2022/03/20 08:07:58;;;;;;;0.40;0.37;;;;;;;9.24;24.24;97188.97;5130750;27;20513;-56
2022/03/20 08:10:26;;;;;;;0.83;0.83;;;;;;;9.99;24.53;97172.03;5132190;27;20522;-56
2022/03/20 08:12:55;;;;;;;0.47;0.37;;;;;;;9.79;25.58;97188.09;5132327;27;20454;-56
2022/03/20 08:15:24;;;;;;;0.40;0.30;;;;;;;10.22;24.60;97168.75;5132664;27;20884;-56
2022/03/20 08:17:55;;;;;;;0.87;0.87;;;;;;;11.21;26.32;97164.53;5132337;27;20423;-56
2022/03/20 08:20:23;;;;;;;0.33;0.27;;;;;;;10.11;22.39;97165.78;5132887;27;20446;-57
2022/03/20 08:22:52;;;;;;;0.80;0.80;;;;;;;10.23;25.28;97159.75;5132619;27;20446;-57
2022/03/20 08:25:20;;;;;;;0.40;0.30;;;;;;;10.49;21.95;97149.66;5132582;27;20418;-58
2022/03/20 08:27:50;;;;;;;0.53;0.40;;;;;;;11.22;21.81;97152.88;5132344;27;20479;-57
2022/03/20 08:30:20;;;;;;;0.30;0.20;;;;;;;11.19;20.67;97139.25;5132548;27;20434;-56
2022/03/20 08:32:48;;;;;;;0.40;0.30;;;;;;;9.67;22.58;97144.84;5132247;27;20461;-57
2022/03/20 08:35:19;;;;;;;0.53;0.47;;;;;;;9.84;23.56;97156.47;5132077;27;20943;-57
2022/03/20 08:37:49;;;;;;;0.40;0.40;;;;;;;10.83;21.62;97143.66;5131999;27;20433;-58
2022/03/20 08:40:19;;;;;;;0.40;0.30;;;;;;;11.12;21.77;97134.06;5132330;27;20505;-57
2022/03/20 08:42:48;;;;;;;0.40;0.40;;;;;;;9.98;21.51;97134.13;5132054;27;20447;-57
2022/03/20 08:45:17;;;;;;;0.40;0.30;;;;;;;10.35;22.66;97126.19;5132025;27;20476;-56
2022/03/20 08:47:46;;;;;;;0.50;0.50;;;;;;;11.05;22.16;97052.94;5132050;27;20496;-56
2022/03/20 08:50:15;;;;;;;0.40;0.30;;;;;;;11.29;21.52;97104.97;5131939;27;20927;-57
2022/03/20 08:52:46;;;;;;;0.30;0.30;;;;;;;11.15;22.48;97123.00;5131647;27;20561;-57
2022/03/20 08:55:15;;;;;;;0.40;0.30;;;;;;;11.46;21.40;97109.38;5131832;28;20411;-56
2022/03/20 08:57:46;;;;;;;0.40;0.30;;;;;;;11.89;22.33;97117.00;5131837;28;21001;-57
2022/03/20 09:00:16;;;;;;;0.40;0.30;;;;;;;12.77;21.64;97108.66;5131950;28;20423;-57
2022/03/20 09:02:45;;;;;;;0.40;0.30;;;;;;;11.74;22.48;97098.06;5131847;27;20490;-57
2022/03/20 09:05:15;;;;;;;0.40;0.30;;;;;;;12.86;20.51;97098.41;5132086;28;20505;-57
2022/03/20 09:07:46;;;;;;;3.30;0.57;;;;;;;12.28;20.32;97082.72;5131661;28;20474;-58
2022/03/20 09:10:16;;;;;;;0.63;0.63;;;;;;;10.97;20.65;97082.44;5131842;27;20465;-57
2022/03/20 09:12:45;;;;;;;0.37;0.30;;;;;;;11.58;24.19;97085.50;5132038;28;20539;-56
2022/03/20 09:15:19;;;;;;;0.40;0.30;;;;;;;12.59;21.65;97082.25;5132169;27;20499;-57
2022/03/20 09:20:35;;;;;;;1.27;0.50;;;;;;;13.18;20.01;97073.69;5132011;28;20477;-57
2022/03/20 09:23:06;;;;;;;0.73;0.50;;;;;;;13.14;19.98;97071.75;5131907;28;20419;-57
2022/03/20 09:25:35;;;;;;;0.50;0.50;;;;;;;12.06;19.48;97072.75;5132002;28;20533;-57
2022/03/20 09:28:04;;;;;;;0.50;0.40;;;;;;;12.88;19.86;97075.81;5132040;28;20419;-58
2022/03/20 09:30:34;;;;;;;0.40;0.33;;;;;;;13.71;20.07;97059.81;5131957;28;20502;-57
2022/03/20 09:33:04;;;;;;;0.50;0.37;;;;;;;13.35;19.74;97058.53;5131950;27;20472;-57
2022/03/20 09:35:34;;;;;;;0.40;0.30;;;;;;;12.44;19.24;97047.41;5131801;27;20434;-56
2022/03/20 09:38:06;;;;;;;0.40;0.40;;;;;;;14.23;20.03;97044.22;5131932;28;20415;-57
2022/03/20 09:40:37;;;;;;;0.50;0.50;;;;;;;15.19;19.34;97037.13;5131811;27;20423;-56
2022/03/20 09:43:05;;;;;;;0.30;0.30;;;;;;;14.92;24.93;97021.16;5131879;27;20430;-55
2022/03/20 09:45:35;;;;;;;0.40;0.30;;;;;;;14.65;21.02;97028.38;5135360;27;20449;-56
2022/03/20 09:48:05;;;;;;;0.70;0.67;;;;;;;14.20;19.97;97031.38;5135224;27;20918;-56
2022/03/20 09:50:34;;;;;;;0.40;0.30;;;;;;;14.40;19.81;97025.47;5135619;27;20501;-57
2022/03/20 09:53:03;;;;;;;0.40;0.30;;;;;;;14.20;19.35;97020.69;5135160;27;20548;-55
2022/03/20 09:55:33;;;;;;;0.40;0.30;;;;;;;15.55;16.48;97014.13;5135270;27;20434;-56
2022/03/20 09:58:01;;;;;;;0.57;0.53;;;;;;;15.74;18.43;97016.09;5135219;27;20505;-56
2022/03/20 10:00:30;;;;;;;0.40;0.40;;;;;;;15.04;17.52;96971.06;5135479;27;20575;-56
2022/03/20 10:02:59;;;;;;;0.40;0.40;;;;;;;14.58;17.73;96995.78;5135431;27;20893;-55
2022/03/20 10:05:28;;;;;;;0.60;0.53;;;;;;;15.12;18.01;97007.16;5135312;27;20429;-55
2022/03/20 10:08:10;;;;;;;0.33;0.20;;;;;;;15.71;17.18;96989.88;5134715;27;20531;-56
2022/03/20 10:10:40;;;;;;;0.50;0.50;;;;;;;17.71;17.34;96993.03;5135211;27;20415;-55
2022/03/20 10:13:13;;;;;;;0.40;0.30;;;;;;;17.40;16.21;96991.50;5135049;27;20569;-56
2022/03/20 10:15:44;;;;;;;0.77;0.77;;;;;;;17.23;15.52;96990.97;5134964;27;20483;-55
2022/03/20 10:18:15;;;;;;;0.50;0.30;;;;;;;17.81;15.98;96970.72;5134785;27;21042;-55
2022/03/20 10:20:46;;;;;;;0.83;0.80;;;;;;;17.84;15.71;96980.09;5135052;27;20452;-55
2022/03/20 10:23:36;;;;;;;0.40;0.40;;;;;;;19.28;14.45;96965.16;5134557;27;20426;-56
2022/03/20 10:26:08;;;;;;;0.40;0.30;;;;;;;17.93;15.26;96957.81;5134882;27;20494;-56
2022/03/20 10:28:38;;;;;;;0.40;0.30;;;;;;;17.65;16.95;96945.88;5135019;27;20407;-55
2022/03/20 10:31:09;;;;;;;1.03;0.73;;;;;;;18.32;15.97;96969.41;5134596;27;20466;-56
2022/03/20 10:33:40;;;;;;;0.43;0.43;;;;;;;18.25;14.78;96949.31;5134355;27;20458;-55
2022/03/20 10:36:14;;;;;;;0.47;0.30;;;;;;;16.58;15.98;96891.91;5134497;27;20433;-55
2022/03/20 10:38:43;;;;;;;0.40;0.30;;;;;;;18.82;15.07;96951.38;5134396;27;20949;-56
2022/03/20 10:41:25;;;;;;;0.37;0.30;;;;;;;16.88;16.91;96956.16;5134185;27;20411;-55
2022/03/20 10:43:56;;;;;;;0.37;0.27;;;;;;;18.69;15.41;96934.00;5133926;27;20994;-57
2022/03/20 10:46:27;;;;;;;0.67;0.67;;;;;;;18.07;15.72;96931.16;5134341;27;20476;-56
2022/03/20 10:48:57;;;;;;;1.13;0.30;;;;;;;17.63;15.01;96939.16;5134180;27;20423;-55
2022/03/20 10:51:37;;;;;;;0.50;0.50;;;;;;;18.17;15.08;96945.34;5133158;27;20422;-55
2022/03/20 10:54:10;;;;;;;0.40;0.30;;;;;;;17.60;16.40;96931.66;5134039;27;20458;-55
2022/03/20 10:56:53;;;;;;;0.40;0.40;;;;;;;15.77;17.16;96926.56;5133128;27;20461;-55
2022/03/20 10:59:23;;;;;;;0.50;0.50;;;;;;;15.99;15.83;96929.81;5134194;27;20426;-55
2022/03/20 11:01:52;;;;;;;0.57;0.57;;;;;;;17.20;15.71;96927.22;5133754;27;20517;-55
2022/03/20 11:04:23;;;;;;;1.20;1.13;;;;;;;17.18;17.16;96918.63;5134304;27;20419;-56
2022/03/20 11:06:57;;;;;;;0.30;0.30;;;;;;;18.25;14.33;96917.91;5134265;27;20672;-55
2022/03/20 11:09:25;;;;;;;0.80;0.80;;;;;;;17.51;16.08;96906.44;5133632;27;20469;-55
2022/03/20 11:11:58;;;;;;;0.60;0.50;;;;;;;15.37;16.43;96916.47;5133828;27;20422;-55
2022/03/20 11:14:29;;;;;;;0.40;0.30;;;;;;;13.48;16.25;96627.72;5133763;27;20466;-54
2022/03/20 11:17:01;;;;;;;0.30;0.20;;;;;;;15.21;17.02;96880.06;5133984;27;20422;-56
2022/03/20 11:19:34;;;;;;;0.77;0.60;;;;;;;14.88;17.05;96885.75;5134170;27;20467;-55
2022/03/20 11:22:05;;;;;;;0.57;0.40;;;;;;;14.58;21.18;96889.03;5133858;27;20429;-55
2022/03/20 11:24:35;;;;;;;0.40;0.30;;;;;;;15.80;16.32;96877.91;5133978;27;20422;-55
2022/03/20 11:27:08;;;;;;;0.57;0.37;;;;;;;15.43;16.00;96878.00;5133641;27;20419;-55
2022/03/20 11:29:44;;;;;;;0.60;0.30;;;;;;;16.71;17.23;96864.59;5133688;27;20442;-55
2022/03/20 11:32:13;;;;;;;0.70;0.70;;;;;;;16.03;17.19;96871.25;5133826;27;20554;-55
2022/03/20 11:34:41;;;;;;;1.13;0.40;;;;;;;16.64;15.91;96872.13;5133424;27;20553;-54
2022/03/20 11:37:11;;;;;;;1.27;0.30;;;;;;;16.58;16.13;96860.59;5133065;27;20455;-54
2022/03/20 11:40:00;;;;;;;0.50;0.40;;;;;;;17.22;16.15;96852.69;5132975;27;20962;-55
2022/03/20 11:42:30;;;;;;;0.60;0.37;;;;;;;17.65;13.96;96829.75;5132810;27;20470;-54
2022/03/20 11:45:18;;;;;;;1.03;0.83;;;;;;;16.74;14.87;96837.28;5133220;27;20896;-54
2022/03/20 11:47:48;;;;;;;0.50;0.40;;;;;;;16.80;16.06;96838.91;5133514;27;20415;-54
2022/03/20 11:50:21;;;;;;;0.83;0.83;;;;;;;16.21;15.49;96839.47;5132884;27;20461;-54
2022/03/20 11:52:55;;;;;;;0.63;0.63;;;;;;;16.18;15.57;96831.97;5133193;27;20500;-54
2022/03/20 11:55:42;;;;;;;0.40;0.33;;;;;;;15.71;16.06;96826.03;5133035;27;20558;-54
2022/03/20 11:58:13;;;;;;;0.60;0.60;;;;;;;14.77;14.98;96758.66;5132943;27;20557;-54
2022/03/20 12:00:44;;;;;;;0.40;0.30;;;;;;;15.11;15.89;96816.72;5132710;27;20862;-55
2022/03/20 12:03:50;;;;;;;0.60;0.43;;;;;;;14.13;15.69;96811.28;5132861;27;20421;-55
2022/03/20 12:06:49;;;;;;;3.47;1.20;;;;;;;14.98;15.78;96819.06;5132758;27;20439;-54
2022/03/20 12:09:49;;;;;;;0.40;0.30;;;;;;;16.44;16.73;96808.69;5132775;27;20471;-54
2022/03/20 12:12:32;;;;;;;0.40;0.40;;;;;;;16.46;15.88;96809.19;5106901;27;20434;-55
2022/03/20 12:15:10;;;;;;;0.37;0.33;;;;;;;15.41;17.34;96808.00;5132587;27;20458;-55
2022/03/20 12:18:00;;;;;;;0.40;0.30;;;;;;;16.31;16.88;96796.66;5132431;27;20546;-54
2022/03/20 12:21:05;;;;;;;0.60;0.40;;;;;;;17.02;16.02;96788.47;5127403;27;20530;-55
2022/03/20 12:23:43;;;;;;;0.40;0.30;;;;;;;15.80;16.14;96806.53;5048949;28;20410;-54
2022/03/20 12:26:42;;;;;;;0.30;0.20;;;;;;;16.42;26.35;96782.16;5123210;27;20446;-54